Time;durP1;ratioP1;P1;durP2;ratioP2;P2;SDS_P1;SDS_P2;PMS_P1;PMS_P2;Temp;Humidity;BMP_temperature;BMP_pressure;BME280_temperature;BME280_humidity;BME280_pressure;Samples;Min_cycle;Max_cycle;Signal;HPM_P1;HPM_P2
2023/08/23 00:00:09;;;;;;;4.18;3.13;;;;;;;19.21;60.50;100609.47;5010073;28;20138;-44
2023/08/23 00:02:35;;;;;;;6.63;2.85;;;;;;;19.12;60.58;100602.72;4996377;28;20454;-47
2023/08/23 00:05:02;;;;;;;4.78;3.17;;;;;;;19.04;60.66;100604.69;5007635;28;20049;-44
2023/08/23 00:07:29;;;;;;;6.57;2.65;;;;;;;18.99;60.96;100606.59;5006957;28;20054;-44
2023/08/23 00:09:56;;;;;;;4.57;2.58;;;;;;;18.93;60.46;100599.75;5004295;28;20060;-47
2023/08/23 00:12:22;;;;;;;2.53;2.33;;;;;;;18.88;60.79;100597.25;5001188;28;20060;-43
2023/08/23 00:14:49;;;;;;;5.25;2.00;;;;;;;18.83;60.67;100598.28;5006407;28;20061;-44
2023/08/23 00:17:16;;;;;;;4.30;2.30;;;;;;;18.78;60.56;100594.94;5004175;28;20054;-44
2023/08/23 00:19:43;;;;;;;4.60;2.60;;;;;;;18.74;60.56;100599.41;5001592;28;20096;-42
2023/08/23 00:22:10;;;;;;;3.72;2.63;;;;;;;18.68;61.10;100595.19;5001422;28;20495;-46
2023/08/23 00:24:36;;;;;;;6.30;3.63;;;;;;;18.63;60.68;100591.84;5009724;28;20042;-42
2023/08/23 00:27:04;;;;;;;4.03;2.50;;;;;;;18.58;61.19;100599.00;5010179;28;20046;-45
2023/08/23 00:29:32;;;;;;;4.68;2.60;;;;;;;18.53;60.73;100595.63;5008606;28;20577;-44
2023/08/23 00:31:59;;;;;;;4.28;2.05;;;;;;;18.46;61.45;100595.78;5006487;28;20054;-44
2023/08/23 00:34:25;;;;;;;3.88;2.35;;;;;;;18.40;60.94;100601.19;5009739;28;20046;-42
2023/08/23 00:36:52;;;;;;;4.07;2.22;;;;;;;18.35;61.08;100605.72;5006919;28;20052;-45
2023/08/23 00:39:18;;;;;;;4.70;2.67;;;;;;;18.31;61.43;100596.22;4999326;28;20665;-48
2023/08/23 00:41:45;;;;;;;4.85;2.92;;;;;;;18.26;61.14;100593.69;4999703;28;20046;-44
2023/08/23 00:44:12;;;;;;;3.45;2.88;;;;;;;18.22;60.72;100592.06;5008816;28;20050;-43
2023/08/23 00:46:39;;;;;;;6.90;2.65;;;;;;;18.17;61.01;100589.53;5008607;28;20072;-43
2023/08/23 00:49:07;;;;;;;6.13;3.00;;;;;;;18.13;61.52;100593.16;5002501;28;20392;-43
2023/08/23 00:51:34;;;;;;;4.57;2.97;;;;;;;18.07;61.36;100598.53;5009497;28;20100;-42
2023/08/23 00:54:01;;;;;;;6.05;2.55;;;;;;;18.04;61.68;100596.00;5001818;28;20542;-44
2023/08/23 00:56:29;;;;;;;5.20;2.85;;;;;;;17.99;61.21;100596.09;5002578;28;20061;-44
2023/08/23 00:58:55;;;;;;;4.90;2.45;;;;;;;17.94;61.76;100598.81;5005448;28;20121;-46
2023/08/23 01:01:22;;;;;;;5.25;2.78;;;;;;;17.90;61.87;100596.34;5000300;28;20053;-44
2023/08/23 01:03:50;;;;;;;3.53;2.33;;;;;;;17.86;61.88;100585.06;5003642;28;20137;-45
2023/08/23 01:09:31;;;;;;;2.42;1.13;;;;;;;17.70;61.71;100574.94;5157385;27;20393;-44
2023/08/23 01:12:07;;;;;;;4.57;1.02;;;;;;;17.71;61.78;100576.69;5098621;27;20052;-44
2023/08/23 01:17:15;;;;;;;4.40;1.85;;;;;;;18.21;61.74;100585.94;5012664;27;20410;-48
2023/08/23 01:22:22;;;;;;;3.50;1.02;;;;;;;17.72;62.65;100578.41;5064504;27;20475;-47
2023/08/23 01:24:51;;;;;;;2.58;1.23;;;;;;;17.66;62.51;100583.78;5021755;28;20176;-44
2023/08/23 01:27:18;;;;;;;4.07;1.13;;;;;;;17.62;62.37;100589.16;5033071;28;20049;-44
2023/08/23 01:29:46;;;;;;;3.72;1.55;;;;;;;17.58;62.07;100590.97;5038483;28;20072;-45
2023/08/23 01:35:05;;;;;;;3.83;1.38;;;;;;;17.44;62.21;100605.25;5025781;28;20937;-45
2023/08/23 01:37:32;;;;;;;4.63;1.65;;;;;;;17.36;62.10;100591.44;5028940;28;20045;-43
2023/08/23 01:40:01;;;;;;;4.28;1.30;;;;;;;17.32;62.59;100597.63;5023151;28;20465;-44
2023/08/23 01:42:28;;;;;;;5.20;1.63;;;;;;;17.27;62.96;100586.41;5023003;28;20067;-42
2023/08/23 01:44:56;;;;;;;3.15;1.65;;;;;;;17.23;63.10;100588.25;5023500;28;20046;-47
2023/08/23 01:47:23;;;;;;;8.18;1.80;;;;;;;17.18;63.03;100593.56;5040337;28;20045;-43
2023/08/23 01:49:50;;;;;;;6.05;1.27;;;;;;;17.16;62.71;100595.34;5022718;28;20514;-47
2023/08/23 01:52:17;;;;;;;4.03;1.45;;;;;;;17.11;63.26;100578.91;5017846;28;20053;-44
2023/08/23 01:54:48;;;;;;;4.15;1.55;;;;;;;17.06;63.76;100584.22;5017493;28;20042;-41
2023/08/23 01:57:15;;;;;;;4.28;1.40;;;;;;;17.06;63.25;100583.38;5015628;28;20084;-47
2023/08/23 01:59:44;;;;;;;7.75;1.75;;;;;;;17.04;63.91;100590.34;5015813;28;20133;-45
2023/08/23 02:02:11;;;;;;;5.88;1.55;;;;;;;17.01;63.94;100591.28;5013821;28;20083;-45
2023/08/23 02:04:37;;;;;;;6.60;1.92;;;;;;;16.98;63.48;100591.34;5012387;28;20071;-45
2023/08/23 02:07:04;;;;;;;6.07;1.88;;;;;;;16.95;64.08;100589.66;5010753;28;20053;-45
2023/08/23 02:09:31;;;;;;;5.47;1.83;;;;;;;16.93;63.90;100587.97;5014173;28;20053;-44
2023/08/23 02:11:58;;;;;;;3.63;1.30;;;;;;;16.91;63.79;100594.97;5010323;28;20124;-45
2023/08/23 02:14:24;;;;;;;5.28;1.35;;;;;;;16.88;63.77;100595.06;5013831;28;20099;-44
2023/08/23 02:16:51;;;;;;;6.03;2.03;;;;;;;16.85;63.99;100595.13;5011561;28;20100;-44
2023/08/23 02:19:18;;;;;;;4.72;1.17;;;;;;;16.81;64.47;100599.53;5012814;28;20672;-44
2023/08/23 02:21:44;;;;;;;5.35;1.77;;;;;;;16.76;64.43;100601.38;5012108;28;20046;-43
2023/08/23 02:24:11;;;;;;;5.13;2.10;;;;;;;16.72;64.71;100591.88;5018795;28;20049;-44
2023/08/23 02:26:38;;;;;;;6.15;1.73;;;;;;;16.68;64.32;100594.56;5018577;28;20125;-42
2023/08/23 02:29:04;;;;;;;7.43;2.20;;;;;;;16.67;64.58;100592.84;5013888;28;20050;-45
2023/08/23 02:31:31;;;;;;;4.13;1.40;;;;;;;16.66;64.51;100591.13;5019520;28;20520;-43
2023/08/23 02:33:58;;;;;;;2.95;1.58;;;;;;;16.63;64.92;100583.31;5021961;28;20058;-44
2023/08/23 02:36:25;;;;;;;8.98;1.88;;;;;;;16.62;64.63;100592.03;5014519;28;20053;-42
2023/08/23 02:38:51;;;;;;;5.97;1.85;;;;;;;16.60;64.21;100580.75;5018090;28;20056;-44
2023/08/23 02:41:18;;;;;;;7.13;1.95;;;;;;;16.57;65.28;100586.06;5014206;28;20045;-45
2023/08/23 02:43:44;;;;;;;8.25;1.80;;;;;;;16.56;64.61;100579.09;5019119;28;20046;-44
2023/08/23 02:46:11;;;;;;;7.45;1.83;;;;;;;16.55;64.65;100587.84;5005616;28;20097;-44
2023/08/23 02:48:38;;;;;;;6.13;1.98;;;;;;;16.53;65.23;100585.25;5006044;28;20120;-42
2023/08/23 02:51:06;;;;;;;5.75;2.00;;;;;;;16.52;64.79;100587.91;5001881;28;20098;-44
2023/08/23 02:53:33;;;;;;;5.18;1.92;;;;;;;16.50;64.81;100584.44;5003734;28;20070;-44
2023/08/23 02:56:00;;;;;;;4.25;1.52;;;;;;;16.48;65.23;100586.25;5003821;28;20057;-42
2023/08/23 02:58:26;;;;;;;6.40;1.80;;;;;;;16.48;64.60;100586.25;5001370;28;20046;-42
2023/08/23 03:00:53;;;;;;;4.90;2.80;;;;;;;16.48;65.04;100587.06;5001413;28;20615;-44
2023/08/23 03:03:20;;;;;;;8.68;1.88;;;;;;;16.45;65.24;100593.22;4996541;28;20100;-43
2023/08/23 03:05:56;;;;;;;7.70;1.92;;;;;;;16.42;64.89;100592.44;5006530;28;20064;-45
2023/08/23 03:08:23;;;;;;;;;;;;;;;16.22;65.25;100587.56;5001341;28;20546;-41
2023/08/23 03:10:50;;;;;;;4.65;1.52;;;;;;;16.36;64.29;100593.41;4996060;28;19938;-48
2023/08/23 03:13:17;;;;;;;6.20;1.95;;;;;;;16.37;64.28;100589.03;4995581;28;20050;-45
2023/08/23 03:15:43;;;;;;;4.75;1.90;;;;;;;16.36;64.83;100588.19;4998374;28;20042;-47
2023/08/23 03:18:10;;;;;;;7.65;2.97;;;;;;;16.34;65.08;100587.34;4995783;28;20056;-44
2023/08/23 03:20:37;;;;;;;4.60;2.03;;;;;;;16.32;65.22;100594.38;4999507;28;20050;-45
2023/08/23 03:23:04;;;;;;;4.80;1.77;;;;;;;16.29;64.54;100590.06;5000882;28;20125;-42
2023/08/23 03:25:31;;;;;;;4.10;1.88;;;;;;;16.27;65.60;100583.97;5000502;28;20055;-44
2023/08/23 03:27:58;;;;;;;7.30;2.15;;;;;;;16.25;65.42;100582.28;5006681;28;20050;-42
2023/08/23 03:30:25;;;;;;;7.68;3.10;;;;;;;16.23;64.71;100576.22;5008090;28;20491;-44
2023/08/23 03:32:51;;;;;;;6.55;1.98;;;;;;;16.19;65.33;100576.25;4998983;28;20049;-44
2023/08/23 03:35:18;;;;;;;7.65;2.63;;;;;;;16.17;65.62;100572.81;5002346;28;20415;-42
2023/08/23 03:37:45;;;;;;;5.93;2.25;;;;;;;16.15;65.10;100579.81;4996654;28;20105;-44
2023/08/23 03:40:22;;;;;;;6.95;2.45;;;;;;;16.12;65.37;100574.66;4997913;28;20081;-42
2023/08/23 03:42:48;;;;;;;6.25;2.28;;;;;;;16.10;65.90;100563.38;5001259;28;20061;-44
2023/08/23 03:45:17;;;;;;;8.15;2.42;;;;;;;16.08;65.83;100552.09;5002628;28;20565;-45
2023/08/23 03:47:44;;;;;;;6.95;2.72;;;;;;;16.09;65.82;100553.81;5007570;28;20392;-44
2023/08/23 03:50:12;;;;;;;7.50;2.75;;;;;;;16.08;65.92;100564.28;5003998;28;20085;-48
2023/08/23 03:52:38;;;;;;;7.20;2.00;;;;;;;16.07;65.86;100560.81;4999439;28;20052;-44
2023/08/23 03:55:05;;;;;;;7.70;2.50;;;;;;;16.06;65.66;100564.31;5002759;28;20055;-45
2023/08/23 03:57:42;;;;;;;5.28;1.98;;;;;;;16.05;65.60;100552.16;4999428;28;20100;-45
2023/08/23 04:00:09;;;;;;;8.65;2.17;;;;;;;16.04;65.88;100553.00;4996765;28;20056;-45
2023/08/23 04:02:35;;;;;;;7.03;1.88;;;;;;;16.02;66.27;100552.19;4995753;28;20111;-44
2023/08/23 04:05:05;;;;;;;5.82;2.47;;;;;;;16.03;66.00;100553.91;4995730;28;20046;-42
2023/08/23 04:07:32;;;;;;;4.88;2.20;;;;;;;16.04;65.68;100553.00;4997859;28;20050;-48
2023/08/23 04:09:58;;;;;;;6.75;2.13;;;;;;;16.03;66.30;100548.69;4997263;28;20050;-42
2023/08/23 04:12:25;;;;;;;8.57;2.70;;;;;;;16.02;66.58;100546.97;4998575;28;20100;-43
2023/08/23 04:15:02;;;;;;;7.10;2.08;;;;;;;16.02;66.47;100546.97;4999990;28;20057;-43
2023/08/23 04:17:29;;;;;;;8.70;2.53;;;;;;;16.03;66.67;100552.16;4997132;28;20079;-45
2023/08/23 04:19:56;;;;;;;6.72;2.55;;;;;;;16.04;66.40;100555.63;4997551;28;22140;-44
2023/08/23 04:22:23;;;;;;;7.45;2.58;;;;;;;16.04;66.96;100556.50;4998753;28;20112;-42
2023/08/23 04:24:51;;;;;;;4.40;2.35;;;;;;;16.05;66.61;100557.38;4997407;28;20045;-46
2023/08/23 04:27:18;;;;;;;8.82;2.55;;;;;;;16.05;66.82;100557.38;4994283;28;20053;-43
2023/08/23 04:29:44;;;;;;;7.07;2.63;;;;;;;16.05;67.14;100553.00;4998687;28;20045;-45
2023/08/23 04:32:12;;;;;;;5.82;2.45;;;;;;;16.07;67.31;100558.19;4997329;28;20049;-45
2023/08/23 04:34:39;;;;;;;7.57;2.30;;;;;;;16.10;67.09;100559.88;5004437;28;20042;-46
2023/08/23 04:37:07;;;;;;;6.50;2.28;;;;;;;16.10;66.85;100560.75;4996292;28;20141;-45
2023/08/23 04:39:34;;;;;;;5.15;1.67;;;;;;;16.13;67.25;100555.47;5004899;28;20096;-44
2023/08/23 04:42:01;;;;;;;8.38;2.45;;;;;;;16.14;67.71;100540.69;5002600;28;20138;-44
2023/08/23 04:44:29;;;;;;;6.50;2.30;;;;;;;16.15;67.01;100551.06;4999317;28;20046;-44
2023/08/23 04:46:56;;;;;;;4.63;2.40;;;;;;;16.16;67.15;100551.94;5003650;28;20085;-44
2023/08/23 04:49:22;;;;;;;8.35;2.65;;;;;;;16.17;67.07;100557.16;4997179;28;20053;-43
2023/08/23 04:51:49;;;;;;;8.50;2.25;;;;;;;16.19;66.97;100544.91;5003712;28;20140;-43
2023/08/23 04:54:15;;;;;;;6.05;2.60;;;;;;;16.20;67.42;100540.53;5000616;28;20034;-42
2023/08/23 04:56:42;;;;;;;5.18;2.20;;;;;;;16.17;67.47;100531.03;4998713;28;20077;-46
2023/08/23 04:59:09;;;;;;;6.82;2.53;;;;;;;16.17;67.28;100541.47;4999705;28;20050;-43
2023/08/23 05:01:35;;;;;;;6.32;2.25;;;;;;;16.16;67.51;100542.38;5000016;28;20074;-42
2023/08/23 05:04:07;;;;;;;7.63;2.53;;;;;;;16.18;67.77;100547.56;5010879;28;20137;-45
2023/08/23 05:06:35;;;;;;;8.25;2.05;;;;;;;16.19;67.25;100544.91;5018029;28;20066;-43
2023/08/23 05:09:04;;;;;;;7.38;2.30;;;;;;;16.22;67.38;100545.75;4997678;28;20407;-43
2023/08/23 05:11:31;;;;;;;5.18;2.20;;;;;;;16.26;67.66;100555.25;4985955;28;20054;-43
2023/08/23 05:13:58;;;;;;;5.57;2.38;;;;;;;16.27;67.57;100562.19;4992382;28;20416;-45
2023/08/23 05:16:25;;;;;;;9.30;3.17;;;;;;;16.30;67.64;100556.91;4999770;28;20050;-45
2023/08/23 05:18:52;;;;;;;7.78;2.42;;;;;;;16.32;67.15;100570.84;4992252;28;20073;-45
2023/08/23 05:21:18;;;;;;;7.22;2.33;;;;;;;16.35;67.90;100570.75;4993417;28;20056;-47
2023/08/23 05:23:45;;;;;;;8.60;1.95;;;;;;;16.38;67.60;100565.47;4994235;28;20050;-44
2023/08/23 05:26:12;;;;;;;7.28;2.20;;;;;;;16.43;67.98;100562.78;4993959;28;20058;-43
2023/08/23 05:28:38;;;;;;;8.20;2.03;;;;;;;16.47;67.97;100558.34;4997031;28;20410;-44
2023/08/23 05:31:10;;;;;;;5.30;2.00;;;;;;;16.51;67.87;100566.09;4996080;28;20046;-45
2023/08/23 05:33:39;;;;;;;5.40;1.70;;;;;;;16.55;67.97;100569.53;4996321;28;20409;-49
2023/08/23 05:36:05;;;;;;;6.35;2.15;;;;;;;16.60;67.75;100575.53;4995087;28;20057;-46
2023/08/23 05:38:32;;;;;;;4.18;1.95;;;;;;;16.63;67.82;100570.25;4994427;28;20057;-48
2023/08/23 05:41:08;;;;;;;6.95;2.80;;;;;;;16.66;67.40;100574.56;4996007;28;20050;-44
2023/08/23 05:43:35;;;;;;;4.95;1.90;;;;;;;16.68;67.78;100577.97;4995501;28;20060;-43
2023/08/23 05:46:03;;;;;;;8.05;2.38;;;;;;;16.72;67.69;100573.56;4998215;28;20120;-42
2023/08/23 05:48:34;;;;;;;5.22;1.80;;;;;;;16.75;67.77;100589.22;4995645;28;22770;-45
2023/08/23 05:51:07;;;;;;;7.18;2.30;;;;;;;16.78;67.80;100584.75;4995308;28;20050;-43
2023/08/23 05:53:33;;;;;;;4.22;2.08;;;;;;;16.86;67.69;100582.00;4994947;28;20049;-42
2023/08/23 05:56:00;;;;;;;7.90;2.83;;;;;;;16.90;67.46;100586.28;4995527;28;20486;-47
2023/08/23 05:58:27;;;;;;;5.35;1.75;;;;;;;16.95;67.43;100592.28;4995679;28;20435;-44
2023/08/23 06:00:55;;;;;;;4.75;2.13;;;;;;;16.98;67.83;100601.81;4995943;28;20053;-47
2023/08/23 06:03:22;;;;;;;5.65;1.73;;;;;;;17.00;67.48;100596.53;4996444;28;20046;-44
2023/08/23 06:05:53;;;;;;;6.22;2.08;;;;;;;17.01;67.05;100595.66;5002630;28;20050;-45
2023/08/23 06:08:21;;;;;;;4.68;2.03;;;;;;;17.00;67.52;100604.41;4994944;28;20451;-44
2023/08/23 06:10:48;;;;;;;4.63;2.28;;;;;;;17.00;67.68;100599.16;4994849;28;20073;-43
2023/08/23 06:13:15;;;;;;;3.97;1.73;;;;;;;17.01;67.92;100599.13;4994051;28;20054;-46
2023/08/23 06:15:41;;;;;;;9.02;2.10;;;;;;;17.02;67.50;100589.53;4998231;28;20108;-44
2023/08/23 06:18:08;;;;;;;4.90;1.58;;;;;;;17.04;67.30;100590.34;4999924;28;20042;-43
2023/08/23 06:20:35;;;;;;;4.25;1.60;;;;;;;17.09;67.82;100596.38;5000950;28;20061;-44
2023/08/23 06:23:02;;;;;;;6.18;2.05;;;;;;;17.14;67.77;100612.00;5001732;28;20335;-44
2023/08/23 06:25:29;;;;;;;3.85;1.83;;;;;;;17.18;67.80;100625.00;4998552;28;20045;-46
2023/08/23 06:27:55;;;;;;;5.25;2.40;;;;;;;17.22;67.14;100620.53;5000792;28;20042;-48
2023/08/23 06:30:22;;;;;;;5.35;2.25;;;;;;;17.25;67.87;100624.88;5001334;28;20050;-43
2023/08/23 06:32:49;;;;;;;6.32;1.55;;;;;;;17.29;67.14;100626.53;4997822;28;20058;-42
2023/08/23 06:35:17;;;;;;;5.47;3.03;;;;;;;17.37;67.12;100626.34;5005203;28;22070;-44
2023/08/23 06:37:44;;;;;;;5.85;2.28;;;;;;;17.44;67.75;100628.81;4999687;28;20609;-45
2023/08/23 06:40:12;;;;;;;5.65;2.22;;;;;;;17.52;67.67;100630.38;4997055;28;20074;-46
2023/08/23 06:42:39;;;;;;;6.45;2.53;;;;;;;17.60;67.27;100631.09;5001874;28;20421;-47
2023/08/23 06:45:08;;;;;;;4.53;2.00;;;;;;;17.67;66.91;100621.31;5008894;28;20092;-44
2023/08/23 06:47:37;;;;;;;5.95;2.00;;;;;;;17.71;67.63;100622.97;5009369;28;20045;-46
2023/08/23 06:50:04;;;;;;;7.38;3.10;;;;;;;17.77;67.33;100616.72;5000325;28;20578;-45
2023/08/23 06:52:36;;;;;;;6.60;2.13;;;;;;;17.80;66.91;100622.72;5008531;28;20682;-42
2023/08/23 06:55:03;;;;;;;5.05;2.05;;;;;;;17.86;66.73;100619.13;5007815;28;20054;-45
2023/08/23 06:57:30;;;;;;;6.00;2.30;;;;;;;17.87;67.13;100636.56;5004885;28;20146;-44
2023/08/23 06:59:58;;;;;;;5.18;1.85;;;;;;;17.89;66.43;100640.00;5009728;28;20058;-44
2023/08/23 07:02:25;;;;;;;6.13;2.75;;;;;;;17.89;66.85;100632.16;5007661;28;20053;-42
2023/08/23 07:04:53;;;;;;;9.63;2.05;;;;;;;17.92;66.74;100642.56;5004343;28;20554;-45
2023/08/23 07:07:20;;;;;;;9.32;2.17;;;;;;;17.94;66.85;100640.75;5001181;28;20042;-45
2023/08/23 07:09:47;;;;;;;5.97;1.73;;;;;;;17.97;66.91;100635.44;5000725;28;20537;-43
2023/08/23 07:12:14;;;;;;;6.50;2.25;;;;;;;18.03;67.00;100628.34;4993528;28;20054;-48
2023/08/23 07:14:40;;;;;;;4.55;1.50;;;;;;;18.11;66.68;100631.66;4995351;28;20052;-44
2023/08/23 07:17:08;;;;;;;6.70;1.88;;;;;;;18.20;67.33;100631.41;4997808;28;20048;-43
2023/08/23 07:19:40;;;;;;;7.18;1.95;;;;;;;18.29;66.59;100634.69;4999868;28;20581;-44
2023/08/23 07:22:06;;;;;;;4.32;1.35;;;;;;;18.36;67.01;100638.88;5000195;28;20045;-43
2023/08/23 07:24:33;;;;;;;5.07;1.48;;;;;;;18.42;66.61;100635.25;4999040;28;20057;-44
2023/08/23 07:27:00;;;;;;;7.78;1.80;;;;;;;18.45;66.26;100625.56;5003674;28;20042;-43
2023/08/23 07:29:27;;;;;;;6.55;1.92;;;;;;;18.51;66.17;100635.03;4994944;28;20045;-44
2023/08/23 07:31:54;;;;;;;3.45;1.50;;;;;;;18.57;66.88;100641.84;4997794;28;20447;-44
2023/08/23 07:34:21;;;;;;;4.38;1.63;;;;;;;18.64;66.09;100635.53;4999364;28;20057;-43
2023/08/23 07:36:47;;;;;;;5.40;1.50;;;;;;;18.71;66.48;100636.25;5000313;28;20077;-44
2023/08/23 07:39:14;;;;;;;3.00;1.17;;;;;;;18.74;66.44;100646.63;4998824;28;20080;-44
2023/08/23 07:41:40;;;;;;;3.53;1.95;;;;;;;18.79;66.29;100636.03;5000210;28;20415;-47
2023/08/23 07:44:07;;;;;;;6.32;1.95;;;;;;;18.84;65.89;100642.00;4996435;28;20050;-44
2023/08/23 07:46:34;;;;;;;6.43;1.63;;;;;;;18.84;66.29;100636.75;4997915;28;20053;-46
2023/08/23 07:49:00;;;;;;;5.95;1.40;;;;;;;18.85;66.30;100633.25;4993574;28;20511;-45
2023/08/23 07:51:27;;;;;;;5.75;1.95;;;;;;;18.85;66.18;100638.50;4998075;28;20517;-45
2023/08/23 07:53:54;;;;;;;8.40;1.95;;;;;;;18.84;66.27;100640.25;4996602;28;20050;-45
2023/08/23 07:56:20;;;;;;;5.55;2.90;;;;;;;18.85;65.79;100633.25;4997105;28;20701;-45
2023/08/23 07:58:47;;;;;;;7.72;1.48;;;;;;;18.84;66.08;100626.25;5001519;28;20447;-43
2023/08/23 08:01:14;;;;;;;3.90;1.67;;;;;;;18.84;65.94;100634.13;5003568;28;20069;-45
2023/08/23 08:03:41;;;;;;;4.47;1.50;;;;;;;18.85;65.95;100646.34;5001959;28;20042;-46
2023/08/23 08:06:08;;;;;;;6.97;1.75;;;;;;;18.85;65.74;100648.97;5003871;28;20038;-44
2023/08/23 08:08:39;;;;;;;4.00;1.38;;;;;;;18.88;65.87;100643.66;5004484;28;20058;-45
2023/08/23 08:11:05;;;;;;;6.78;1.55;;;;;;;18.92;65.71;100629.53;5001340;28;20045;-45
2023/08/23 08:13:32;;;;;;;3.85;1.15;;;;;;;19.00;66.09;100627.56;5004236;28;20054;-44
2023/08/23 08:16:05;;;;;;;5.72;1.20;;;;;;;19.11;65.90;100623.75;5003202;28;20053;-44
2023/08/23 08:18:32;;;;;;;3.92;1.50;;;;;;;19.19;65.80;100632.31;5004715;28;20050;-44
2023/08/23 08:20:59;;;;;;;3.25;1.45;;;;;;;19.23;65.76;100633.94;5002428;28;20058;-43
2023/08/23 08:23:26;;;;;;;5.78;1.63;;;;;;;19.26;65.70;100628.56;5002212;28;20131;-45
2023/08/23 08:25:53;;;;;;;3.55;1.48;;;;;;;19.26;65.39;100633.81;5003873;28;20042;-45
2023/08/23 08:28:20;;;;;;;3.42;1.50;;;;;;;19.34;65.85;100640.59;5000356;28;20050;-44
2023/08/23 08:30:47;;;;;;;4.82;1.60;;;;;;;19.42;65.54;100653.53;5004201;28;20053;-43
2023/08/23 08:33:15;;;;;;;7.65;1.67;;;;;;;19.46;65.23;100655.16;4996423;28;20456;-45
2023/08/23 08:35:46;;;;;;;5.65;1.58;;;;;;;19.46;64.78;100656.03;5004706;28;20593;-45
2023/08/23 08:38:13;;;;;;;4.07;1.45;;;;;;;19.47;64.88;100651.59;5000386;28;20054;-42
2023/08/23 08:40:40;;;;;;;2.83;2.60;;;;;;;19.48;65.02;100643.69;5001145;28;20707;-48
2023/08/23 08:43:07;;;;;;;5.55;1.52;;;;;;;19.54;64.65;100645.25;4998383;28;20068;-46
2023/08/23 08:45:37;;;;;;;3.58;1.17;;;;;;;19.66;64.99;100651.91;4993780;28;20064;-45
2023/08/23 08:48:05;;;;;;;4.22;1.13;;;;;;;19.77;65.04;100655.06;5004476;28;20045;-44
2023/08/23 08:50:32;;;;;;;3.40;1.40;;;;;;;19.88;64.63;100652.09;4996691;28;20050;-48
2023/08/23 08:53:00;;;;;;;5.15;1.35;;;;;;;19.97;64.21;100644.81;5002208;28;20085;-45
2023/08/23 08:55:29;;;;;;;4.85;1.60;;;;;;;20.08;64.45;100645.34;5002193;28;20099;-43
2023/08/23 08:57:57;;;;;;;4.18;1.15;;;;;;;20.25;64.22;100655.31;5004644;28;20060;-46
2023/08/23 09:00:25;;;;;;;5.47;1.20;;;;;;;20.42;64.23;100667.03;5001297;28;20112;-43
2023/08/23 09:02:57;;;;;;;3.25;1.45;;;;;;;20.62;63.89;100663.72;4994340;28;20209;-45
2023/08/23 09:05:25;;;;;;;9.57;1.55;;;;;;;20.75;63.47;100663.28;4992888;28;20057;-45
2023/08/23 09:07:52;;;;;;;4.43;2.90;;;;;;;20.87;63.25;100677.78;4998451;28;20627;-47
2023/08/23 09:10:19;;;;;;;2.88;1.30;;;;;;;20.97;62.97;100673.91;5000192;28;20041;-45
2023/08/23 09:12:46;;;;;;;2.88;1.00;;;;;;;21.06;62.21;100663.06;4999534;28;20049;-44
2023/08/23 09:15:12;;;;;;;3.33;1.42;;;;;;;21.12;61.83;100672.50;4999431;28;20061;-44
2023/08/23 09:17:39;;;;;;;3.45;1.08;;;;;;;21.14;62.14;100677.72;4996520;28;20073;-44
2023/08/23 09:20:08;;;;;;;3.30;1.10;;;;;;;21.19;61.69;100678.41;4999427;28;20056;-48
2023/08/23 09:22:36;;;;;;;2.30;1.35;;;;;;;21.20;61.58;100669.56;4993837;28;20136;-47
2023/08/23 09:25:03;;;;;;;7.55;1.33;;;;;;;21.23;61.64;100658.06;4999482;28;20418;-46
2023/08/23 09:27:31;;;;;;;6.95;1.83;;;;;;;21.23;61.60;100656.28;4997741;28;20136;-44
2023/08/23 09:30:05;;;;;;;5.47;1.27;;;;;;;21.25;61.02;100646.56;5000865;28;20049;-43
2023/08/23 09:32:32;;;;;;;3.55;0.88;;;;;;;21.28;61.24;100635.88;5003193;28;20046;-46
2023/08/23 09:35:09;;;;;;;4.82;1.17;;;;;;;21.34;61.24;100640.06;5001141;28;20057;-47
2023/08/23 09:37:39;;;;;;;3.22;0.82;;;;;;;21.42;60.94;100637.16;4995382;28;20046;-43
2023/08/23 09:40:14;;;;;;;8.02;1.63;;;;;;;21.47;61.55;100637.81;5003715;28;20076;-44
2023/08/23 09:42:42;;;;;;;6.35;2.10;;;;;;;21.55;60.90;100645.44;4998511;28;20065;-46
2023/08/23 09:45:12;;;;;;;4.60;1.30;;;;;;;21.61;60.48;100646.97;5002271;28;20052;-47
2023/08/23 09:47:42;;;;;;;3.03;1.10;;;;;;;21.65;60.47;100645.94;5005300;28;20054;-47
2023/08/23 09:50:10;;;;;;;2.45;1.02;;;;;;;21.68;60.43;100649.28;4997728;28;20053;-46
2023/08/23 09:52:38;;;;;;;4.55;0.88;;;;;;;21.70;60.27;100641.31;5012357;28;20045;-45
2023/08/23 09:55:11;;;;;;;4.35;1.38;;;;;;;21.77;60.45;100642.81;5018169;28;20057;-46
2023/08/23 09:57:41;;;;;;;2.00;1.10;;;;;;;21.96;61.32;100637.66;5006235;28;20049;-48
2023/08/23 10:00:09;;;;;;;3.47;1.08;;;;;;;22.33;61.33;100637.88;5007041;28;20190;-43
2023/08/23 10:02:37;;;;;;;3.20;1.00;;;;;;;22.74;61.04;100633.53;5022016;28;20037;-46
2023/08/23 10:05:06;;;;;;;4.07;0.82;;;;;;;23.15;60.54;100629.06;5018248;28;20770;-46
2023/08/23 10:07:34;;;;;;;3.25;1.05;;;;;;;23.52;59.52;100630.00;5023198;28;20519;-47
2023/08/23 10:10:03;;;;;;;4.07;1.35;;;;;;;23.99;59.42;100622.47;5022864;28;20131;-47
2023/08/23 10:12:30;;;;;;;5.70;1.20;;;;;;;24.39;58.17;100609.84;5020915;28;20498;-45
2023/08/23 10:14:59;;;;;;;7.28;1.25;;;;;;;24.72;57.22;100615.25;5024092;28;20096;-45
2023/08/23 10:17:26;;;;;;;3.28;1.17;;;;;;;24.99;57.03;100623.53;5024612;28;20057;-47
2023/08/23 10:19:53;;;;;;;4.57;0.80;;;;;;;25.23;55.52;100627.56;5026931;28;20848;-47
2023/08/23 10:22:20;;;;;;;3.28;1.10;;;;;;;25.30;54.66;100621.00;5017223;28;20041;-49
2023/08/23 10:24:48;;;;;;;2.10;1.08;;;;;;;25.30;54.28;100615.69;4994727;28;20055;-47
2023/08/23 10:27:16;;;;;;;2.10;0.85;;;;;;;25.33;53.65;100610.19;5002495;28;20104;-47
2023/08/23 10:29:50;;;;;;;1.98;0.85;;;;;;;25.38;53.50;100602.00;4997015;28;20051;-48
2023/08/23 10:32:17;;;;;;;3.17;0.80;;;;;;;25.51;53.25;100607.47;4997724;28;20050;-47
2023/08/23 10:34:44;;;;;;;7.10;1.63;;;;;;;25.56;52.76;100610.69;4999621;28;20050;-49
2023/08/23 10:37:15;;;;;;;4.22;1.58;;;;;;;25.62;52.49;100609.50;5002286;28;20100;-49
2023/08/23 10:39:53;;;;;;;3.50;1.00;;;;;;;25.75;53.11;100610.53;4999112;28;20046;-49
2023/08/23 10:42:21;;;;;;;2.25;0.93;;;;;;;25.93;52.20;100613.03;4995091;28;20120;-47
2023/08/23 10:47:26;;;;;;;1.52;0.82;;;;;;;26.14;51.42;100594.97;5036083;27;20391;-46
2023/08/23 10:49:54;;;;;;;3.35;0.73;;;;;;;26.22;50.87;100591.03;5006258;28;20507;-47
2023/08/23 10:52:21;;;;;;;3.08;1.02;;;;;;;26.32;50.84;100586.91;5000261;28;20050;-46
2023/08/23 10:54:48;;;;;;;6.10;1.58;;;;;;;26.50;52.28;100589.34;4998830;28;20054;-53
2023/08/23 10:57:17;;;;;;;4.30;1.15;;;;;;;26.65;51.35;100588.41;5003644;28;20053;-49
2023/08/23 10:59:44;;;;;;;2.95;0.95;;;;;;;26.79;51.35;100578.72;4981324;28;20129;-47
2023/08/23 11:02:11;;;;;;;1.75;1.10;;;;;;;26.95;50.87;100574.16;4999781;28;20057;-48
2023/08/23 11:04:38;;;;;;;1.27;1.15;;;;;;;27.14;50.20;100569.47;4988389;28;20042;-46
2023/08/23 11:07:06;;;;;;;2.33;0.52;;;;;;;27.26;49.76;100575.81;4982308;28;20046;-48
2023/08/23 11:09:33;;;;;;;1.13;0.50;;;;;;;27.46;49.70;100572.69;4995470;28;20057;-49
2023/08/23 11:12:01;;;;;;;1.52;0.70;;;;;;;27.63;49.74;100573.44;4996009;28;20047;-52
2023/08/23 11:14:28;;;;;;;2.45;0.55;;;;;;;27.86;48.52;100568.34;4994931;28;20057;-46
2023/08/23 11:16:55;;;;;;;1.88;0.60;;;;;;;28.03;49.52;100569.84;4974560;28;20416;-48
2023/08/23 11:19:21;;;;;;;1.00;0.73;;;;;;;28.23;47.86;100565.81;4978709;28;20068;-48
2023/08/23 11:21:48;;;;;;;1.65;0.43;;;;;;;28.39;47.69;100563.91;4997543;28;20148;-50
2023/08/23 11:24:15;;;;;;;2.30;0.47;;;;;;;28.57;46.62;100556.47;4989435;28;20049;-47
2023/08/23 11:26:41;;;;;;;1.98;0.88;;;;;;;28.67;47.66;100557.50;4972093;28;20046;-47
2023/08/23 11:29:08;;;;;;;2.60;1.42;;;;;;;28.72;46.13;100560.69;4986046;28;20551;-49
2023/08/23 11:31:36;;;;;;;2.13;1.58;;;;;;;28.82;46.86;100552.03;4979858;28;20046;-47
2023/08/23 11:34:08;;;;;;;4.95;0.77;;;;;;;29.02;47.49;100560.41;4973489;28;20133;-49
2023/08/23 11:36:37;;;;;;;1.70;0.70;;;;;;;29.22;45.77;100562.47;4985229;28;20082;-47
2023/08/23 11:39:04;;;;;;;1.38;1.27;;;;;;;29.34;46.04;100552.69;4971902;28;20054;-48